createdAt,value
2022-10-20T00:00:57.046Z,97.68
2022-10-20T00:03:42.395Z,97.46
2022-10-20T00:06:30.483Z,97.39
2022-10-20T00:09:15.985Z,97.96
2022-10-20T00:12:00.758Z,97.85
2022-10-20T00:14:45.542Z,98.68
2022-10-20T00:17:30.594Z,98.91
2022-10-20T00:23:00.561Z,98.81
2022-10-20T00:25:47.509Z,98.95
2022-10-20T00:28:33.060Z,98.91
2022-10-20T00:31:19.150Z,98.69
2022-10-20T00:34:04.358Z,98.95
2022-10-20T00:36:51.311Z,99.08
2022-10-20T00:39:37.199Z,99.56
2022-10-20T00:42:22.108Z,99.37
2022-10-20T00:45:15.190Z,99.00
2022-10-20T00:48:05.987Z,98.89
2022-10-20T00:50:53.726Z,99.03
2022-10-20T00:53:38.894Z,99.00
2022-10-20T00:56:23.905Z,99.02
2022-10-20T00:59:11.249Z,98.94
2022-10-20T01:01:57.569Z,99.15
2022-10-20T01:04:43.429Z,98.96
2022-10-20T01:07:28.508Z,98.92
2022-10-20T01:10:14.106Z,99.12
2022-10-20T01:13:08.513Z,99.09
2022-10-20T01:16:07.094Z,98.87
2022-10-20T01:18:58.227Z,99.05
2022-10-20T01:22:03.002Z,99.09
2022-10-20T01:24:54.190Z,99.21
2022-10-20T01:27:45.294Z,99.39
2022-10-20T01:30:32.026Z,99.09
2022-10-20T01:33:43.944Z,99.25
2022-10-20T01:36:36.879Z,99.25
2022-10-20T01:39:38.429Z,99.08
2022-10-20T01:42:26.006Z,98.67
2022-10-20T01:45:14.549Z,98.29
2022-10-20T01:48:03.158Z,98.20
2022-10-20T01:50:49.987Z,98.05
2022-10-20T01:53:35.418Z,98.06
2022-10-20T01:56:29.774Z,98.00
2022-10-20T01:59:17.901Z,97.97
2022-10-20T02:02:35.263Z,98.08
2022-10-20T02:05:45.301Z,97.71
2022-10-20T02:08:43.248Z,97.82
2022-10-20T02:11:54.968Z,97.87
2022-10-20T02:14:42.019Z,98.29
2022-10-20T02:17:29.035Z,98.04
2022-10-20T02:20:15.493Z,98.32
2022-10-20T02:23:04.782Z,98.24
2022-10-20T02:25:52.825Z,98.13
2022-10-20T02:28:40.890Z,98.11
2022-10-20T02:31:26.496Z,98.27
2022-10-20T02:34:12.468Z,98.28
2022-10-20T02:36:59.143Z,98.31
2022-10-20T02:39:44.177Z,98.49
2022-10-20T02:42:29.234Z,98.31
2022-10-20T02:45:14.384Z,98.07
2022-10-20T02:47:59.550Z,97.80
2022-10-20T02:50:44.640Z,97.65
2022-10-20T02:53:29.522Z,97.90
2022-10-20T02:56:14.356Z,97.51
2022-10-20T02:58:59.177Z,97.30
2022-10-20T03:01:44.559Z,97.04
2022-10-20T03:04:29.598Z,96.66
2022-10-20T03:07:15.073Z,96.42
2022-10-20T03:10:00.249Z,96.15
2022-10-20T03:12:45.324Z,96.11
2022-10-20T03:15:30.626Z,96.37
2022-10-20T03:18:15.544Z,96.49
2022-10-20T03:21:00.453Z,96.15
2022-10-20T03:23:45.194Z,96.27
2022-10-20T03:26:30.200Z,96.58
2022-10-20T03:29:15.239Z,96.17
2022-10-20T03:32:00.106Z,96.68
2022-10-20T03:34:45.544Z,96.93
2022-10-20T03:37:30.413Z,96.96
2022-10-20T03:40:15.518Z,97.29
2022-10-20T03:43:00.575Z,97.31
2022-10-20T03:45:45.726Z,97.10
2022-10-20T03:48:30.805Z,96.86
2022-10-20T03:51:15.966Z,96.58
2022-10-20T03:54:00.701Z,96.42
2022-10-20T03:56:45.497Z,96.57
2022-10-20T03:59:30.660Z,96.65
2022-10-20T04:02:40.898Z,96.72
2022-10-20T04:05:25.983Z,96.66
2022-10-20T04:08:11.329Z,96.46
2022-10-20T04:10:57.627Z,96.43
2022-10-20T04:13:42.538Z,96.58
2022-10-20T04:16:27.522Z,96.67
2022-10-20T04:19:12.343Z,96.72
2022-10-20T04:21:57.263Z,97.10
2022-10-20T04:24:42.388Z,97.15
2022-10-20T04:27:28.199Z,96.82
2022-10-20T04:30:13.291Z,97.12
2022-10-20T04:32:58.059Z,96.91
2022-10-20T04:35:43.386Z,96.94
2022-10-20T04:38:33.366Z,97.01
2022-10-20T04:41:18.436Z,96.79
2022-10-20T04:44:03.700Z,96.71
2022-10-20T04:46:48.802Z,96.88
2022-10-20T04:49:34.247Z,96.91
2022-10-20T04:52:19.061Z,97.52
2022-10-20T04:55:04.715Z,97.34
2022-10-20T04:57:49.646Z,96.95
2022-10-20T05:00:34.629Z,97.19
2022-10-20T05:03:20.232Z,96.81
2022-10-20T05:06:17.048Z,96.82
2022-10-20T05:09:06.900Z,97.12
2022-10-20T05:11:52.541Z,97.41
2022-10-20T05:14:37.450Z,97.36
2022-10-20T05:17:22.519Z,97.42
2022-10-20T05:20:07.732Z,97.34
2022-10-20T05:22:52.665Z,97.07
2022-10-20T05:25:38.554Z,97.09
2022-10-20T05:28:23.762Z,97.04
2022-10-20T05:31:08.819Z,97.20
2022-10-20T05:33:55.539Z,97.05
2022-10-20T05:36:40.692Z,97.08
2022-10-20T05:39:25.541Z,96.78
2022-10-20T05:42:10.903Z,96.88
2022-10-20T05:44:56.308Z,97.06
2022-10-20T05:47:41.209Z,97.14
2022-10-20T05:50:29.398Z,97.22
2022-10-20T05:53:16.588Z,97.16
2022-10-20T05:56:10.142Z,96.92
2022-10-20T05:58:56.010Z,96.79
2022-10-20T06:01:41.166Z,96.46
2022-10-20T06:04:26.109Z,96.28
2022-10-20T06:07:11.074Z,96.59
2022-10-20T06:09:57.675Z,96.53
2022-10-20T06:12:45.806Z,96.25
2022-10-20T06:15:32.482Z,96.29
2022-10-20T06:18:17.679Z,95.63
2022-10-20T06:21:07.531Z,95.61
2022-10-20T06:23:52.950Z,95.48
2022-10-20T06:26:39.118Z,95.31
2022-10-20T06:29:24.171Z,94.85
2022-10-20T06:32:09.067Z,95.09
2022-10-20T06:34:54.375Z,94.88
2022-10-20T06:37:39.333Z,94.54
2022-10-20T06:40:24.816Z,94.49
2022-10-20T06:43:09.735Z,94.43
2022-10-20T06:46:00.029Z,94.63
2022-10-20T06:48:45.928Z,94.46
2022-10-20T06:51:31.862Z,94.49
2022-10-20T06:54:17.740Z,94.47
2022-10-20T06:57:02.936Z,94.28
2022-10-20T06:59:47.910Z,94.18
2022-10-20T07:02:33.301Z,94.04
2022-10-20T07:05:18.344Z,93.90
2022-10-20T07:08:03.323Z,93.87
2022-10-20T07:10:56.939Z,93.42
2022-10-20T07:13:42.714Z,93.06
2022-10-20T07:16:30.928Z,92.84
2022-10-20T07:19:15.830Z,92.94
2022-10-20T07:22:00.735Z,93.01
2022-10-20T07:24:45.783Z,92.89
2022-10-20T07:27:31.097Z,92.62
2022-10-20T07:30:16.006Z,92.55
2022-10-20T07:33:00.968Z,92.46
2022-10-20T07:35:46.340Z,92.21
2022-10-20T07:38:31.291Z,92.14
2022-10-20T07:41:16.573Z,92.46
2022-10-20T07:44:01.911Z,92.83
2022-10-20T07:46:47.292Z,92.97
2022-10-20T07:49:44.327Z,93.13
2022-10-20T07:52:30.356Z,93.22
2022-10-20T07:55:36.595Z,93.43
2022-10-20T07:58:20.517Z,93.76
2022-10-20T08:01:06.051Z,93.24
2022-10-20T08:03:51.137Z,93.90
2022-10-20T08:06:36.275Z,94.10
2022-10-20T08:09:21.625Z,93.70
2022-10-20T08:12:06.618Z,94.59
2022-10-20T08:14:51.533Z,94.35
2022-10-20T08:17:36.957Z,94.32
2022-10-20T08:20:26.405Z,94.04
2022-10-20T08:23:13.666Z,93.76
2022-10-20T08:25:59.830Z,93.65
2022-10-20T08:28:46.665Z,93.12
2022-10-20T08:31:32.176Z,92.86
2022-10-20T08:34:17.465Z,92.35
2022-10-20T08:37:02.765Z,92.14
2022-10-20T08:39:48.142Z,91.73
2022-10-20T08:42:39.038Z,91.30
2022-10-20T08:45:26.428Z,90.75
2022-10-20T08:48:22.098Z,90.95
2022-10-20T08:51:17.932Z,90.35
2022-10-20T08:54:04.356Z,90.19
2022-10-20T08:56:49.995Z,89.75
2022-10-20T08:59:39.762Z,89.30
2022-10-20T09:02:26.267Z,88.76
2022-10-20T09:05:15.406Z,88.95
2022-10-20T09:08:03.816Z,88.99
2022-10-20T09:10:53.411Z,88.04
2022-10-20T09:13:38.854Z,88.47
2022-10-20T09:16:40.804Z,87.47
2022-10-20T09:19:33.954Z,87.20
2022-10-20T09:22:20.683Z,87.06
2022-10-20T09:25:06.936Z,86.37
2022-10-20T09:27:52.071Z,85.71
2022-10-20T09:30:37.137Z,85.59
2022-10-20T09:33:28.331Z,85.04
2022-10-20T09:36:17.511Z,84.71
2022-10-20T09:39:02.857Z,84.53
2022-10-20T09:41:49.210Z,84.45
2022-10-20T09:44:48.679Z,83.96
2022-10-20T09:47:34.893Z,84.26
2022-10-20T09:50:32.013Z,83.72
2022-10-20T09:53:23.961Z,83.25
2022-10-20T09:56:09.381Z,83.50
2022-10-20T09:58:56.770Z,82.51
2022-10-20T10:01:58.969Z,82.82
2022-10-20T10:04:46.432Z,82.38
2022-10-20T10:07:31.621Z,81.74
2022-10-20T10:10:19.722Z,81.20
2022-10-20T10:16:05.027Z,80.62
2022-10-20T10:19:01.774Z,80.84
2022-10-20T10:21:58.792Z,80.69
2022-10-20T10:24:46.111Z,80.28
2022-10-20T10:27:36.688Z,79.46
2022-10-20T10:30:31.950Z,79.69
2022-10-20T10:33:28.879Z,80.06
2022-10-20T10:36:33.800Z,80.30
2022-10-20T10:39:18.918Z,80.17
2022-10-20T10:42:12.118Z,80.60
2022-10-20T10:45:17.667Z,80.08
2022-10-20T10:48:05.591Z,80.71
2022-10-20T10:50:53.039Z,80.76
2022-10-20T10:54:00.022Z,79.71
2022-10-20T10:56:56.443Z,80.11
2022-10-20T10:59:44.126Z,79.56
2022-10-20T11:03:08.729Z,79.93
2022-10-20T11:06:05.970Z,79.35
2022-10-20T11:09:14.884Z,79.65
2022-10-20T11:12:28.677Z,79.94
2022-10-20T11:15:33.699Z,80.16
2022-10-20T11:18:44.695Z,79.91
2022-10-20T11:21:44.893Z,79.89
2022-10-20T11:24:38.986Z,79.28
2022-10-20T11:27:33.879Z,78.68
2022-10-20T11:30:20.727Z,78.64
2022-10-20T11:33:11.567Z,78.76
2022-10-20T11:36:24.409Z,78.72
2022-10-20T11:39:30.828Z,79.61
2022-10-20T11:42:30.041Z,79.81
2022-10-20T11:45:24.297Z,79.92
2022-10-20T11:48:30.444Z,79.94
2022-10-20T11:51:30.495Z,80.12
2022-10-20T11:54:44.505Z,79.94
2022-10-20T11:57:58.966Z,80.78
2022-10-20T12:00:54.119Z,81.02
2022-10-20T12:03:45.067Z,80.91
2022-10-20T12:06:48.660Z,80.67
2022-10-20T12:10:15.510Z,80.95
2022-10-20T12:13:15.400Z,81.64
2022-10-20T12:16:02.024Z,81.45
2022-10-20T12:19:06.364Z,81.59
2022-10-20T12:22:03.234Z,82.10
2022-10-20T12:25:26.828Z,82.53
2022-10-20T12:28:20.916Z,82.50
2022-10-20T12:31:06.955Z,82.78
2022-10-20T12:33:52.244Z,82.33
2022-10-20T12:36:40.295Z,82.76
2022-10-20T12:39:29.475Z,83.25
2022-10-20T12:42:29.836Z,82.84
2022-10-20T12:45:18.730Z,84.27
2022-10-20T12:48:05.800Z,84.55
2022-10-20T12:50:52.387Z,85.07
2022-10-20T12:53:38.297Z,85.22
2022-10-20T12:56:25.630Z,85.94
2022-10-20T12:59:31.211Z,86.88
2022-10-20T13:02:16.789Z,87.66
2022-10-20T13:05:15.436Z,89.71
2022-10-20T13:08:02.411Z,91.86
2022-10-20T13:10:49.226Z,92.33
2022-10-20T13:13:45.703Z,92.18
2022-10-20T13:16:31.376Z,92.70
2022-10-20T13:19:33.699Z,93.88
2022-10-20T13:22:44.522Z,95.25
2022-10-20T13:25:40.441Z,94.95
2022-10-20T13:28:31.757Z,93.90
2022-10-20T13:31:28.407Z,93.86
2022-10-20T13:34:28.443Z,94.08
2022-10-20T13:37:49.983Z,93.27
2022-10-20T13:43:57.913Z,94.73
2022-10-20T13:47:06.618Z,94.51
2022-10-20T13:49:54.594Z,94.41
2022-10-20T13:52:43.951Z,93.83
2022-10-20T13:55:51.470Z,94.03
2022-10-20T13:58:36.558Z,94.18
2022-10-20T14:01:26.776Z,93.67
2022-10-20T14:04:33.905Z,94.88
2022-10-20T14:07:19.063Z,95.60
2022-10-20T14:10:05.720Z,96.43
2022-10-20T14:12:52.572Z,97.05
2022-10-20T14:15:38.285Z,97.95
2022-10-20T14:18:27.470Z,98.53
2022-10-20T14:21:18.248Z,99.52
2022-10-20T14:24:04.322Z,99.85
2022-10-20T14:26:51.488Z,100.00
2022-10-20T14:29:40.131Z,100.00
2022-10-20T14:32:30.662Z,100.00
2022-10-20T14:35:19.217Z,100.00
2022-10-20T14:38:17.013Z,100.00
2022-10-20T14:41:02.402Z,100.00
2022-10-20T14:43:51.265Z,100.00
2022-10-20T14:46:39.468Z,100.00
2022-10-20T14:49:29.236Z,100.00
2022-10-20T14:52:21.280Z,100.00
2022-10-20T14:55:27.476Z,100.00
2022-10-20T14:58:33.372Z,100.00
2022-10-20T15:01:27.612Z,100.00
2022-10-20T15:04:26.565Z,100.00
2022-10-20T15:07:29.136Z,100.00
2022-10-20T15:10:16.539Z,100.00
2022-10-20T15:13:02.083Z,100.00
2022-10-20T15:15:48.355Z,100.00
2022-10-20T15:18:37.944Z,100.00
2022-10-20T15:21:25.110Z,100.00
2022-10-20T15:24:10.383Z,100.00
2022-10-20T15:26:56.342Z,100.00
2022-10-20T15:29:49.654Z,100.00
2022-10-20T15:32:35.436Z,100.00
2022-10-20T15:35:22.454Z,100.00
2022-10-20T15:38:08.954Z,100.00
2022-10-20T15:40:54.340Z,100.00
2022-10-20T15:43:39.795Z,100.00
2022-10-20T15:46:25.064Z,100.00
2022-10-20T15:49:11.060Z,100.00
2022-10-20T15:51:56.745Z,100.00
2022-10-20T15:54:41.949Z,100.00
2022-10-20T15:57:27.327Z,100.00
2022-10-20T16:00:13.215Z,100.00
2022-10-20T16:03:01.714Z,100.00
2022-10-20T16:05:47.268Z,100.00
2022-10-20T16:08:32.647Z,100.00
2022-10-20T16:11:20.264Z,100.00
2022-10-20T16:14:06.135Z,100.00
2022-10-20T16:16:52.054Z,100.00
2022-10-20T16:19:37.505Z,100.00
2022-10-20T16:22:22.673Z,100.00
2022-10-20T16:25:09.361Z,100.00
2022-10-20T16:27:54.678Z,100.00
2022-10-20T16:30:39.971Z,100.00
2022-10-20T16:33:25.020Z,100.00
2022-10-20T16:36:13.007Z,100.00
2022-10-20T16:38:58.505Z,100.00
2022-10-20T16:41:44.007Z,100.00
2022-10-20T16:44:29.592Z,100.00
2022-10-20T16:47:15.074Z,100.00
2022-10-20T16:50:00.571Z,100.00
2022-10-20T16:52:45.954Z,100.00
2022-10-20T16:55:31.390Z,100.00
2022-10-20T16:58:16.730Z,100.00
2022-10-20T17:01:08.633Z,100.00
2022-10-20T17:03:53.837Z,100.00
2022-10-20T17:06:39.377Z,100.00
2022-10-20T17:09:25.124Z,100.00
2022-10-20T17:12:10.205Z,100.00
2022-10-20T17:14:55.667Z,100.00
2022-10-20T17:17:40.750Z,100.00
2022-10-20T17:20:26.191Z,100.00
2022-10-20T17:23:12.323Z,100.00
2022-10-20T17:25:59.946Z,100.00
2022-10-20T17:28:45.334Z,100.00
2022-10-20T17:31:31.312Z,100.00
2022-10-20T17:34:16.782Z,100.00
2022-10-20T17:37:01.637Z,100.00
2022-10-20T17:39:47.418Z,100.00
2022-10-20T17:42:32.730Z,100.00
2022-10-20T17:45:17.637Z,100.00
2022-10-20T17:48:03.408Z,100.00
2022-10-20T17:50:48.252Z,100.00
2022-10-20T17:53:35.611Z,100.00
2022-10-20T17:56:29.192Z,100.00
2022-10-20T17:59:14.507Z,100.00
2022-10-20T18:01:59.733Z,100.00
2022-10-20T18:04:45.340Z,100.00
2022-10-20T18:07:30.775Z,100.00
2022-10-20T18:10:16.402Z,100.00
2022-10-20T18:13:01.858Z,100.00
2022-10-20T18:15:47.303Z,100.00
2022-10-20T18:18:32.270Z,100.00
2022-10-20T18:21:19.426Z,100.00
2022-10-20T18:24:06.586Z,100.00
2022-10-20T18:26:52.136Z,100.00
2022-10-20T18:29:37.518Z,100.00
2022-10-20T18:32:22.888Z,100.00
2022-10-20T18:35:08.628Z,100.00
2022-10-20T18:37:53.936Z,100.00
2022-10-20T18:40:38.956Z,100.00
2022-10-20T18:43:24.101Z,100.00
2022-10-20T18:46:09.502Z,100.00
2022-10-20T18:48:55.305Z,100.00
2022-10-20T18:51:41.406Z,100.00
2022-10-20T18:54:26.465Z,100.00
2022-10-20T18:57:11.401Z,100.00
2022-10-20T18:59:56.314Z,100.00
2022-10-20T19:02:41.393Z,100.00
2022-10-20T19:05:26.751Z,100.00
2022-10-20T19:08:12.145Z,100.00
2022-10-20T19:10:58.585Z,100.00
2022-10-20T19:13:43.555Z,100.00
2022-10-20T19:16:31.528Z,100.00
2022-10-20T19:19:16.677Z,100.00
2022-10-20T19:22:01.703Z,100.00
2022-10-20T19:24:47.276Z,100.00
2022-10-20T19:27:32.621Z,100.00
2022-10-20T19:30:17.891Z,100.00
2022-10-20T19:33:04.296Z,100.00
2022-10-20T19:35:50.444Z,100.00
2022-10-20T19:38:36.233Z,100.00
2022-10-20T19:41:22.565Z,100.00
2022-10-20T19:44:08.927Z,100.00
2022-10-20T19:46:54.526Z,100.00
2022-10-20T19:49:39.753Z,100.00
2022-10-20T19:52:25.004Z,100.00
2022-10-20T19:55:10.605Z,100.00
2022-10-20T19:57:56.036Z,100.00
2022-10-20T20:00:56.871Z,100.00
2022-10-20T20:03:42.045Z,100.00
2022-10-20T20:06:27.338Z,100.00
2022-10-20T20:09:12.701Z,100.00
2022-10-20T20:11:57.850Z,100.00
2022-10-20T20:14:43.187Z,100.00
2022-10-20T20:17:28.432Z,100.00
2022-10-20T20:20:13.953Z,100.00
2022-10-20T20:22:59.263Z,100.00
2022-10-20T20:25:45.949Z,100.00
2022-10-20T20:28:31.791Z,100.00
2022-10-20T20:31:17.198Z,100.00
2022-10-20T20:34:02.560Z,100.00
2022-10-20T20:36:47.750Z,100.00
2022-10-20T20:39:33.356Z,100.00
2022-10-20T20:42:18.441Z,100.00
2022-10-20T20:45:03.865Z,100.00
2022-10-20T20:47:49.186Z,100.00
2022-10-20T20:50:34.426Z,100.00
2022-10-20T20:53:19.690Z,100.00
2022-10-20T20:56:10.862Z,100.00
2022-10-20T20:58:56.068Z,100.00
2022-10-20T21:01:41.016Z,100.00
2022-10-20T21:04:28.391Z,100.00
2022-10-20T21:07:15.651Z,100.00
2022-10-20T21:10:00.696Z,100.00
2022-10-20T21:12:46.288Z,100.00
2022-10-20T21:15:31.609Z,100.00
2022-10-20T21:18:17.195Z,100.00
2022-10-20T21:21:17.094Z,100.00
2022-10-20T21:24:04.235Z,100.00
2022-10-20T21:26:49.265Z,100.00
2022-10-20T21:29:34.056Z,100.00
2022-10-20T21:32:19.042Z,100.00
2022-10-20T21:35:04.014Z,100.00
2022-10-20T21:37:49.496Z,100.00
2022-10-20T21:40:34.949Z,100.00
2022-10-20T21:43:20.300Z,100.00
2022-10-20T21:46:19.570Z,100.00
2022-10-20T21:49:07.406Z,100.00
2022-10-20T21:51:55.630Z,100.00
2022-10-20T21:54:40.968Z,100.00
2022-10-20T21:57:26.364Z,100.00
2022-10-20T22:00:12.305Z,100.00
2022-10-20T22:02:57.551Z,100.00
2022-10-20T22:05:42.797Z,100.00
2022-10-20T22:08:28.582Z,100.00
2022-10-20T22:11:19.139Z,100.00
2022-10-20T22:14:05.161Z,100.00
2022-10-20T22:16:50.747Z,100.00
2022-10-20T22:19:35.937Z,100.00
2022-10-20T22:22:21.154Z,100.00
2022-10-20T22:25:07.025Z,100.00
2022-10-20T22:27:51.972Z,100.00
2022-10-20T22:30:37.502Z,100.00
2022-10-20T22:33:22.750Z,100.00
2022-10-20T22:36:07.938Z,100.00
2022-10-20T22:38:53.470Z,100.00
2022-10-20T22:41:39.149Z,100.00
2022-10-20T22:44:24.167Z,100.00
2022-10-20T22:47:09.445Z,100.00
2022-10-20T22:49:57.720Z,100.00
2022-10-20T22:52:42.873Z,100.00
2022-10-20T22:55:27.759Z,100.00
2022-10-20T22:58:13.270Z,100.00
2022-10-20T23:00:58.361Z,100.00
2022-10-20T23:03:44.452Z,100.00
2022-10-20T23:06:29.334Z,100.00
2022-10-20T23:09:14.457Z,100.00
2022-10-20T23:11:59.492Z,100.00
2022-10-20T23:14:45.127Z,100.00
2022-10-20T23:17:30.303Z,100.00
2022-10-20T23:20:15.782Z,100.00
2022-10-20T23:23:00.920Z,100.00
2022-10-20T23:25:50.040Z,100.00
2022-10-20T23:28:36.139Z,100.00
2022-10-20T23:31:22.434Z,100.00
2022-10-20T23:34:09.240Z,100.00
2022-10-20T23:36:55.286Z,100.00
2022-10-20T23:39:40.201Z,100.00
2022-10-20T23:42:25.645Z,100.00
2022-10-20T23:45:11.009Z,100.00
2022-10-20T23:47:56.301Z,100.00
2022-10-20T23:50:44.301Z,100.00
2022-10-20T23:53:29.651Z,100.00
2022-10-20T23:56:14.536Z,100.00
2022-10-20T23:58:59.609Z,100.00
